Time;durP1;ratioP1;P1;durP2;ratioP2;P2;SDS_P1;SDS_P2;PMS_P1;PMS_P2;Temp;Humidity;BMP_temperature;BMP_pressure;BME280_temperature;BME280_humidity;BME280_pressure;Samples;Min_cycle;Max_cycle;Signal;HPM_P1;HPM_P2
2022/11/17 00:02:22;;;;;;;13.73;10.63;;;;;;;;;;4966546;28;20228;-62
2022/11/17 00:04:49;;;;;;;24.23;17.63;;;;;;;;;;4985660;28;20217;-62
2022/11/17 00:07:17;;;;;;;12.33;9.13;;;;;;;;;;4961081;28;20207;-62
2022/11/17 00:09:44;;;;;;;9.23;7.67;;;;;;;;;;4981759;28;20211;-62
2022/11/17 00:14:59;;;;;;;11.00;6.87;;;;;;;;;;4980234;28;20242;-62
2022/11/17 00:17:26;;;;;;;10.67;8.47;;;;;;;;;;4969467;28;20903;-62
2022/11/17 00:22:42;;;;;;;9.67;8.67;;;;;;;;;;4993486;28;20390;-62
2022/11/17 00:25:09;;;;;;;10.20;8.57;;;;;;;;;;4994801;28;20648;-62
2022/11/17 00:27:37;;;;;;;11.57;9.50;;;;;;;;;;4980489;28;20302;-62
2022/11/17 00:30:05;;;;;;;13.13;10.03;;;;;;;;;;4987637;28;20306;-62
2022/11/17 00:35:18;;;;;;;12.27;9.67;;;;;;;;;;5008263;28;20275;-62
2022/11/17 00:40:32;;;;;;;12.10;9.70;;;;;;;;;;5005573;28;20319;-63
2022/11/17 00:42:59;;;;;;;11.00;9.07;;;;;;;;;;4992726;28;20314;-62
2022/11/17 00:45:26;;;;;;;10.27;8.77;;;;;;;;;;4990915;28;20713;-62
2022/11/17 00:47:54;;;;;;;10.57;9.23;;;;;;;;;;4977459;28;20628;-62
2022/11/17 00:50:22;;;;;;;9.17;8.27;;;;;;;;;;4967565;28;20199;-62
2022/11/17 00:52:50;;;;;;;9.57;8.57;;;;;;;;;;4969389;28;20953;-62
2022/11/17 00:55:17;;;;;;;12.13;10.47;;;;;;;;;;4967563;28;20211;-62
2022/11/17 00:57:44;;;;;;;11.33;9.23;;;;;;;;;;4971117;28;20207;-62
2022/11/17 01:00:12;;;;;;;10.73;8.23;;;;;;;;;;4967215;28;20214;-63
2022/11/17 01:02:40;;;;;;;9.03;8.07;;;;;;;;;;4970902;28;20227;-62
2022/11/17 01:05:07;;;;;;;9.83;8.13;;;;;;;;;;4972490;28;20294;-63
2022/11/17 01:07:34;;;;;;;9.60;8.57;;;;;;;;;;4971435;28;20346;-63
2022/11/17 01:10:02;;;;;;;9.53;7.80;;;;;;;;;;4970004;28;20597;-62
2022/11/17 01:12:30;;;;;;;8.67;7.60;;;;;;;;;;4986702;28;20580;-62
2022/11/17 01:14:57;;;;;;;8.77;7.10;;;;;;;;;;4969418;28;20226;-63
2022/11/17 01:17:25;;;;;;;7.27;6.50;;;;;;;;;;4972324;28;20200;-62
2022/11/17 01:19:52;;;;;;;6.67;5.63;;;;;;;;;;4974622;28;20212;-62
2022/11/17 01:22:19;;;;;;;6.40;5.80;;;;;;;;;;4966756;28;20325;-62
2022/11/17 01:24:47;;;;;;;6.20;5.60;;;;;;;;;;4971923;28;20204;-63
2022/11/17 01:27:14;;;;;;;5.87;5.27;;;;;;;;;;4976736;28;20670;-63
2022/11/17 01:29:41;;;;;;;5.20;4.70;;;;;;;;;;4968840;28;20204;-62
2022/11/17 01:32:09;;;;;;;6.40;4.83;;;;;;;;;;4964645;28;20235;-63
2022/11/17 01:34:36;;;;;;;4.73;4.30;;;;;;;;;;4967788;28;20246;-63
2022/11/17 01:37:18;;;;;;;5.60;4.43;;;;;;;;;;4964949;28;22000;-63
2022/11/17 01:39:46;;;;;;;5.63;4.93;;;;;;;;;;4971739;28;20303;-63
2022/11/17 01:42:18;;;;;;;5.70;5.00;;;;;;;;;;4987762;28;20235;-62
2022/11/17 01:44:56;;;;;;;6.63;5.00;;;;;;;;;;4960012;28;20744;-63
2022/11/17 01:47:39;;;;;;;5.60;5.10;;;;;;;;;;4966481;28;20226;-63
2022/11/17 01:50:15;;;;;;;5.80;5.10;;;;;;;;;;4986872;28;20752;-63
2022/11/17 01:52:44;;;;;;;5.87;5.17;;;;;;;;;;4956758;28;20231;-63
2022/11/17 01:55:12;;;;;;;7.50;5.47;;;;;;;;;;4967511;28;20207;-62
2022/11/17 01:57:48;;;;;;;6.13;5.20;;;;;;;;;;4966992;28;21040;-63
2022/11/17 02:00:16;;;;;;;6.33;5.60;;;;;;;;;;4968215;28;20238;-63
2022/11/17 02:02:43;;;;;;;6.63;5.93;;;;;;;;;;4959485;28;20313;-63
2022/11/17 02:05:20;;;;;;;6.90;6.00;;;;;;;;;;4961902;28;20216;-63
2022/11/17 02:07:49;;;;;;;8.57;5.93;;;;;;;;;;4959367;28;20230;-62
2022/11/17 02:10:17;;;;;;;7.70;6.43;;;;;;;;;;4964041;28;20206;-63
2022/11/17 02:12:44;;;;;;;6.90;6.20;;;;;;;;;;4966150;28;20260;-63
2022/11/17 02:15:12;;;;;;;7.97;6.30;;;;;;;;;;4964519;28;20215;-62
2022/11/17 02:17:43;;;;;;;8.17;6.77;;;;;;;;;;4969090;28;20301;-62
2022/11/17 02:20:13;;;;;;;8.03;6.73;;;;;;;;;;4961701;28;20219;-62
2022/11/17 02:23:01;;;;;;;7.50;6.47;;;;;;;;;;4980270;28;20702;-62
2022/11/17 02:25:34;;;;;;;7.43;6.60;;;;;;;;;;4970797;28;20239;-62
2022/11/17 02:28:01;;;;;;;8.17;6.50;;;;;;;;;;4989578;28;20298;-62
2022/11/17 02:30:34;;;;;;;7.10;6.40;;;;;;;;;;4990282;28;20258;-62
2022/11/17 02:33:12;;;;;;;7.37;6.70;;;;;;;;;;4968338;28;20335;-62
2022/11/17 02:35:57;;;;;;;7.67;6.87;;;;;;;;;;4975218;28;22298;-62
2022/11/17 02:38:35;;;;;;;6.43;5.73;;;;;;;;;;4956494;28;20610;-62
2022/11/17 02:41:11;;;;;;;7.70;5.97;;;;;;;;;;4968907;28;20231;-62
2022/11/17 02:44:03;;;;;;;8.20;5.23;;;;;;;;;;4970428;28;20214;-62
2022/11/17 02:46:50;;;;;;;7.10;5.30;;;;;;;;;;4975654;28;20466;-62
2022/11/17 02:49:20;;;;;;;6.00;5.33;;;;;;;;;;4966454;28;20270;-62
2022/11/17 02:51:52;;;;;;;6.67;5.30;;;;;;;;;;4964764;28;20317;-62
2022/11/17 02:54:26;;;;;;;6.77;5.33;;;;;;;;;;4986916;28;20252;-62
2022/11/17 02:56:53;;;;;;;7.13;5.67;;;;;;;;;;4964517;28;20302;-63
2022/11/17 02:59:29;;;;;;;6.30;5.53;;;;;;;;;;4969425;28;20290;-62
2022/11/17 03:02:19;;;;;;;7.57;5.30;;;;;;;;;;4968635;28;20453;-62
2022/11/17 03:04:46;;;;;;;7.00;6.37;;;;;;;;;;4967502;28;20355;-62
2022/11/17 03:07:19;;;;;;;8.80;7.40;;;;;;;;;;4972498;28;20203;-62
2022/11/17 03:09:53;;;;;;;8.90;8.07;;;;;;;;;;4965841;28;20212;-62
2022/11/17 03:12:23;;;;;;;12.57;10.37;;;;;;;;;;4963792;28;20238;-63
2022/11/17 03:15:10;;;;;;;12.43;10.00;;;;;;;;;;4968232;28;20216;-62
2022/11/17 03:17:52;;;;;;;8.77;7.90;;;;;;;;;;4968318;28;20337;-62
2022/11/17 03:20:23;;;;;;;8.30;6.90;;;;;;;;;;4963351;28;20247;-62
2022/11/17 03:22:58;;;;;;;8.73;7.67;;;;;;;;;;4960136;28;20231;-62
2022/11/17 03:25:26;;;;;;;9.63;7.17;;;;;;;;;;4970358;28;20198;-62
2022/11/17 03:27:57;;;;;;;9.70;7.53;;;;;;;;;;4964548;28;20336;-62
2022/11/17 03:30:24;;;;;;;9.00;7.40;;;;;;;;;;4967720;28;20235;-62
2022/11/17 03:32:54;;;;;;;8.87;6.77;;;;;;;;;;4966228;28;20283;-62
2022/11/17 03:35:25;;;;;;;7.40;6.60;;;;;;;;;;4960868;28;20743;-63
2022/11/17 03:38:00;;;;;;;9.70;7.07;;;;;;;;;;4976821;28;22131;-63
2022/11/17 03:40:29;;;;;;;8.63;6.23;;;;;;;;;;4969501;28;21014;-64
2022/11/17 03:42:58;;;;;;;7.07;5.97;;;;;;;;;;4974965;28;20235;-63
2022/11/17 03:45:27;;;;;;;7.00;6.03;;;;;;;;;;4987372;28;20239;-63
2022/11/17 03:47:58;;;;;;;5.63;5.10;;;;;;;;;;4964369;28;20345;-62
2022/11/17 03:50:29;;;;;;;6.07;5.07;;;;;;;;;;4970857;28;20208;-63
2022/11/17 03:52:57;;;;;;;5.40;4.40;;;;;;;;;;4970968;28;20314;-61
2022/11/17 03:55:29;;;;;;;5.47;4.70;;;;;;;;;;4968366;28;20210;-62
2022/11/17 03:58:09;;;;;;;7.97;4.60;;;;;;;;;;4969886;28;20208;-62
2022/11/17 04:00:38;;;;;;;5.97;5.00;;;;;;;;;;4967557;28;20243;-61
2022/11/17 04:03:05;;;;;;;4.67;4.27;;;;;;;;;;4978029;28;20289;-63
2022/11/17 04:05:33;;;;;;;5.63;4.43;;;;;;;;;;4969376;28;20214;-63
2022/11/17 04:08:00;;;;;;;6.37;4.80;;;;;;;;;;4969265;28;20881;-60
2022/11/17 04:10:27;;;;;;;5.50;4.30;;;;;;;;;;4968096;28;20227;-63
2022/11/17 04:15:56;;;;;;;5.23;4.63;;;;;;;;;;4986883;28;20223;-62
2022/11/17 04:18:23;;;;;;;6.57;4.57;;;;;;;;;;4972057;28;20930;-62
2022/11/17 04:20:51;;;;;;;4.70;4.20;;;;;;;;;;4975340;28;20261;-63
2022/11/17 04:23:19;;;;;;;4.60;4.17;;;;;;;;;;4987422;28;20263;-63
2022/11/17 04:28:35;;;;;;;5.53;4.87;;;;;;;;;;5000646;28;20291;-63
2022/11/17 04:31:03;;;;;;;5.30;4.50;;;;;;;;;;4983628;28;20322;-63
2022/11/17 04:33:30;;;;;;;7.00;5.60;;;;;;;;;;4989554;28;20199;-63
2022/11/17 04:35:57;;;;;;;6.27;5.47;;;;;;;;;;4992111;28;20860;-63
2022/11/17 04:38:25;;;;;;;6.50;5.30;;;;;;;;;;4987191;28;20300;-63
2022/11/17 04:43:58;;;;;;;7.10;5.50;;;;;;;;;;4922692;28;20340;-63
2022/11/17 04:46:26;;;;;;;7.00;5.97;;;;;;;;;;4953533;28;20215;-63
2022/11/17 04:48:54;;;;;;;7.30;6.20;;;;;;;;;;4958334;28;20257;-62
2022/11/17 04:51:21;;;;;;;8.47;6.17;;;;;;;;;;4965285;28;20241;-63
2022/11/17 04:53:49;;;;;;;7.27;5.67;;;;;;;;;;4970511;28;20239;-63
2022/11/17 04:56:17;;;;;;;7.13;5.43;;;;;;;;;;4966025;28;20222;-63
2022/11/17 04:58:45;;;;;;;9.60;6.77;;;;;;;;;;4972199;28;20200;-62
2022/11/17 05:01:13;;;;;;;7.10;5.93;;;;;;;;;;4966491;28;20677;-62
2022/11/17 05:03:47;;;;;;;6.83;6.13;;;;;;;;;;4969952;28;20210;-63
2022/11/17 05:06:16;;;;;;;8.83;6.13;;;;;;;;;;4962447;28;20241;-63
2022/11/17 05:08:44;;;;;;;7.67;6.20;;;;;;;;;;4953765;28;20203;-62
2022/11/17 05:13:59;;;;;;;7.00;6.30;;;;;;;;;;4976696;28;20222;-63
2022/11/17 05:19:15;;;;;;;7.80;5.87;;;;;;;;;;4986005;28;20211;-62
2022/11/17 05:21:43;;;;;;;7.70;6.07;;;;;;;;;;4964940;28;20267;-62
2022/11/17 05:24:13;;;;;;;10.73;6.50;;;;;;;;;;4972144;28;20637;-63
2022/11/17 05:26:41;;;;;;;7.70;6.27;;;;;;;;;;4962040;28;20215;-61
2022/11/17 05:29:09;;;;;;;8.57;7.23;;;;;;;;;;4963075;28;20207;-63
2022/11/17 05:31:37;;;;;;;7.17;6.43;;;;;;;;;;4969729;28;20666;-62
2022/11/17 05:34:05;;;;;;;10.23;7.67;;;;;;;;;;4967573;28;20262;-63
2022/11/17 05:36:32;;;;;;;9.00;6.80;;;;;;;;;;4969713;28;20226;-61
2022/11/17 05:39:00;;;;;;;6.87;5.90;;;;;;;;;;4968757;28;20257;-63
2022/11/17 05:41:27;;;;;;;10.00;8.60;;;;;;;;;;4970506;28;20238;-62
2022/11/17 05:43:55;;;;;;;7.90;6.53;;;;;;;;;;4966371;28;20300;-63
2022/11/17 05:46:22;;;;;;;7.70;7.00;;;;;;;;;;4969777;28;20591;-63
2022/11/17 05:48:50;;;;;;;9.37;7.03;;;;;;;;;;4989019;28;20233;-62
2022/11/17 05:51:20;;;;;;;8.10;7.03;;;;;;;;;;4969211;28;20223;-63
2022/11/17 05:53:48;;;;;;;7.30;6.60;;;;;;;;;;4968708;28;20211;-63
2022/11/17 05:56:27;;;;;;;9.60;7.40;;;;;;;;;;4963800;28;20259;-63
2022/11/17 05:59:02;;;;;;;7.87;7.17;;;;;;;;;;4970446;28;20298;-63
2022/11/17 06:01:31;;;;;;;7.87;7.07;;;;;;;;;;4965981;28;21223;-63
2022/11/17 06:04:02;;;;;;;8.27;6.90;;;;;;;;;;4972702;28;20338;-63
2022/11/17 06:06:29;;;;;;;8.00;7.20;;;;;;;;;;4969829;28;20566;-63
2022/11/17 06:08:57;;;;;;;8.27;6.83;;;;;;;;;;4966857;28;20272;-64
2022/11/17 06:11:24;;;;;;;9.83;7.03;;;;;;;;;;4971951;28;20330;-63
2022/11/17 06:13:51;;;;;;;7.90;7.10;;;;;;;;;;4964459;28;20230;-63
2022/11/17 06:16:22;;;;;;;7.60;6.80;;;;;;;;;;4959578;28;20208;-63
2022/11/17 06:19:07;;;;;;;7.00;6.27;;;;;;;;;;4960083;28;20588;-61
2022/11/17 06:21:35;;;;;;;8.07;6.67;;;;;;;;;;4967252;28;20829;-61
2022/11/17 06:24:23;;;;;;;9.17;8.27;;;;;;;;;;4985288;28;20294;-61
2022/11/17 06:26:50;;;;;;;7.40;6.70;;;;;;;;;;4986179;28;20298;-64
2022/11/17 06:29:17;;;;;;;11.60;10.50;;;;;;;;;;5000733;28;20735;-63
2022/11/17 06:31:45;;;;;;;11.73;9.87;;;;;;;;;;4983572;28;20326;-63
2022/11/17 06:34:12;;;;;;;9.97;8.93;;;;;;;;;;4977786;28;20634;-63
2022/11/17 06:36:40;;;;;;;18.33;14.80;;;;;;;;;;4985825;28;20227;-63
2022/11/17 06:39:07;;;;;;;10.30;8.37;;;;;;;;;;4987652;28;20207;-63
2022/11/17 06:41:36;;;;;;;10.90;9.73;;;;;;;;;;4991067;28;20306;-62
2022/11/17 06:44:03;;;;;;;6.43;5.57;;;;;;;;;;4988628;28;20219;-62
2022/11/17 06:46:36;;;;;;;8.83;6.10;;;;;;;;;;4977403;28;20227;-61
2022/11/17 06:49:06;;;;;;;6.90;5.37;;;;;;;;;;4958443;28;20275;-61
2022/11/17 06:51:35;;;;;;;5.33;4.83;;;;;;;;;;4984227;28;20228;-61
2022/11/17 06:54:09;;;;;;;6.63;5.50;;;;;;;;;;4976002;28;20265;-62
2022/11/17 06:56:40;;;;;;;5.73;5.23;;;;;;;;;;4979232;28;20207;-62
2022/11/17 06:59:10;;;;;;;5.90;5.30;;;;;;;;;;4992918;28;20216;-62
2022/11/17 07:01:37;;;;;;;6.03;5.43;;;;;;;;;;4982725;28;20231;-62
2022/11/17 07:04:06;;;;;;;6.83;5.37;;;;;;;;;;4970931;28;20213;-63
2022/11/17 07:06:36;;;;;;;6.67;5.57;;;;;;;;;;4963672;28;20293;-62
2022/11/17 07:09:04;;;;;;;5.77;5.27;;;;;;;;;;4965993;28;20204;-63
2022/11/17 07:11:33;;;;;;;6.67;5.60;;;;;;;;;;4988299;28;20254;-63
2022/11/17 07:14:01;;;;;;;7.10;6.40;;;;;;;;;;4967127;28;20650;-63
2022/11/17 07:16:30;;;;;;;7.57;6.30;;;;;;;;;;4971900;28;20254;-63
2022/11/17 07:18:58;;;;;;;6.87;5.97;;;;;;;;;;4972657;28;20301;-63
2022/11/17 07:21:25;;;;;;;7.43;6.73;;;;;;;;;;4970671;28;20226;-63
2022/11/17 07:23:53;;;;;;;6.97;6.27;;;;;;;;;;4971269;28;20338;-63
2022/11/17 07:26:20;;;;;;;6.27;5.73;;;;;;;;;;4972163;28;20207;-63
2022/11/17 07:28:47;;;;;;;7.90;7.10;;;;;;;;;;4988589;28;20628;-63
2022/11/17 07:31:15;;;;;;;7.93;6.17;;;;;;;;;;4981252;28;20231;-63
2022/11/17 07:33:42;;;;;;;7.40;5.97;;;;;;;;;;4969938;28;20240;-63
2022/11/17 07:36:10;;;;;;;7.37;6.43;;;;;;;;;;4971564;28;20725;-63
2022/11/17 07:38:39;;;;;;;10.10;7.80;;;;;;;;;;4966515;28;20207;-63
2022/11/17 07:41:07;;;;;;;7.53;6.80;;;;;;;;;;4966591;28;20705;-63
2022/11/17 07:43:35;;;;;;;6.63;6.03;;;;;;;;;;4963025;28;20239;-63
2022/11/17 07:46:04;;;;;;;7.47;6.77;;;;;;;;;;4970321;28;20222;-63
2022/11/17 07:48:31;;;;;;;8.37;7.47;;;;;;;;;;4956927;28;20216;-63
2022/11/17 07:51:02;;;;;;;6.87;5.83;;;;;;;;;;4969547;28;20202;-64
2022/11/17 07:53:30;;;;;;;7.00;6.40;;;;;;;;;;4958447;28;21230;-64
2022/11/17 07:56:01;;;;;;;7.53;6.07;;;;;;;;;;4961145;28;20203;-62
2022/11/17 07:58:29;;;;;;;7.10;5.43;;;;;;;;;;4959801;28;20211;-63
2022/11/17 08:00:56;;;;;;;8.67;6.30;;;;;;;;;;4976163;28;20241;-64
2022/11/17 08:03:24;;;;;;;5.67;5.00;;;;;;;;;;4959314;28;20235;-61
2022/11/17 08:05:52;;;;;;;6.33;5.07;;;;;;;;;;4963393;28;20212;-63
2022/11/17 08:08:19;;;;;;;6.80;5.10;;;;;;;;;;4969633;28;20211;-64
2022/11/17 08:10:47;;;;;;;7.13;5.03;;;;;;;;;;4971305;28;20218;-64
2022/11/17 08:13:15;;;;;;;6.27;5.20;;;;;;;;;;4976996;28;20589;-62
2022/11/17 08:15:42;;;;;;;4.80;4.40;;;;;;;;;;4971330;28;20433;-63
2022/11/17 08:18:09;;;;;;;4.50;4.10;;;;;;;;;;4964987;28;20659;-64
2022/11/17 08:20:37;;;;;;;4.50;4.10;;;;;;;;;;4969674;28;20242;-63
2022/11/17 08:23:04;;;;;;;5.00;4.50;;;;;;;;;;4988164;28;20694;-63
2022/11/17 08:25:32;;;;;;;5.77;5.20;;;;;;;;;;4987523;28;20207;-63
2022/11/17 08:27:59;;;;;;;7.20;4.07;;;;;;;;;;4984466;28;20199;-64
2022/11/17 08:30:27;;;;;;;3.53;2.30;;;;;;;;;;4984037;28;20213;-63
2022/11/17 08:32:54;;;;;;;4.47;2.00;;;;;;;;;;4966352;28;20227;-64
2022/11/17 08:35:23;;;;;;;3.03;2.17;;;;;;;;;;4981894;28;20215;-64
2022/11/17 08:37:51;;;;;;;3.17;1.40;;;;;;;;;;4987387;28;20227;-63
2022/11/17 08:40:19;;;;;;;4.17;1.40;;;;;;;;;;4988837;28;20234;-62
2022/11/17 08:42:47;;;;;;;4.30;1.20;;;;;;;;;;4986423;28;20286;-63
2022/11/17 08:45:14;;;;;;;2.53;1.03;;;;;;;;;;4981347;28;20269;-63
2022/11/17 08:47:41;;;;;;;5.17;1.57;;;;;;;;;;4990561;28;20219;-63
2022/11/17 08:50:09;;;;;;;2.50;1.03;;;;;;;;;;4986632;28;20921;-63
2022/11/17 08:52:36;;;;;;;1.63;0.97;;;;;;;;;;4971096;28;20488;-63
2022/11/17 08:55:04;;;;;;;1.67;1.10;;;;;;;;;;4974528;28;20216;-64
2022/11/17 08:57:32;;;;;;;1.20;0.80;;;;;;;;;;4970513;28;20217;-62
2022/11/17 09:00:00;;;;;;;2.80;0.80;;;;;;;;;;4967444;28;20216;-64
2022/11/17 09:02:28;;;;;;;5.33;0.93;;;;;;;;;;4965903;28;20232;-64
2022/11/17 09:04:55;;;;;;;2.13;0.90;;;;;;;;;;4963313;28;20211;-64
2022/11/17 09:07:23;;;;;;;1.33;0.77;;;;;;;;;;4968528;28;20207;-62
2022/11/17 09:09:50;;;;;;;1.47;0.80;;;;;;;;;;4961738;28;20330;-63
2022/11/17 09:12:17;;;;;;;1.40;1.30;;;;;;;;;;4970440;28;20290;-63
2022/11/17 09:14:45;;;;;;;1.20;0.97;;;;;;;;;;4971381;28;20212;-63
2022/11/17 09:17:12;;;;;;;0.63;0.60;;;;;;;;;;4973099;28;20298;-62
2022/11/17 09:19:42;;;;;;;1.00;0.80;;;;;;;;;;4970773;28;20506;-62
2022/11/17 09:22:09;;;;;;;0.87;0.77;;;;;;;;;;4966364;28;20634;-63
2022/11/17 09:24:36;;;;;;;1.30;0.80;;;;;;;;;;4965809;28;20705;-63
2022/11/17 09:27:04;;;;;;;1.07;0.90;;;;;;;;;;4971926;28;20228;-63
2022/11/17 09:29:31;;;;;;;0.97;0.70;;;;;;;;;;4970465;28;20227;-63
2022/11/17 09:31:58;;;;;;;0.80;0.80;;;;;;;;;;4973385;28;20220;-63
2022/11/17 09:34:28;;;;;;;1.50;0.70;;;;;;;;;;4963569;28;20596;-62
2022/11/17 09:36:55;;;;;;;0.87;0.60;;;;;;;;;;4971351;28;20556;-63
2022/11/17 09:39:23;;;;;;;1.07;0.93;;;;;;;;;;4972866;28;20913;-63
2022/11/17 09:41:54;;;;;;;0.63;0.63;;;;;;;;;;4970638;28;20235;-62
2022/11/17 09:44:26;;;;;;;1.50;0.67;;;;;;;;;;4976556;28;20231;-64
2022/11/17 09:47:11;;;;;;;0.60;0.60;;;;;;;;;;4964823;28;20245;-62
2022/11/17 09:49:58;;;;;;;0.50;0.50;;;;;;;;;;4984820;28;20307;-64
2022/11/17 09:52:29;;;;;;;1.70;0.70;;;;;;;;;;4970197;28;20231;-64
2022/11/17 09:54:58;;;;;;;0.50;0.50;;;;;;;;;;4958726;28;20243;-62
2022/11/17 09:57:26;;;;;;;0.60;0.60;;;;;;;;;;4968268;28;20218;-64
2022/11/17 10:00:04;;;;;;;2.07;0.50;;;;;;;;;;4971423;28;20262;-64
2022/11/17 10:02:32;;;;;;;2.23;0.60;;;;;;;;;;4967253;28;20230;-64
2022/11/17 10:05:00;;;;;;;0.60;0.60;;;;;;;;;;4974000;28;20216;-62
2022/11/17 10:07:29;;;;;;;0.73;0.70;;;;;;;;;;4967101;28;23204;-63
2022/11/17 10:09:58;;;;;;;2.13;0.73;;;;;;;;;;4972360;28;20483;-63
2022/11/17 10:12:27;;;;;;;0.90;0.70;;;;;;;;;;4971940;28;20235;-64
2022/11/17 10:14:54;;;;;;;1.57;0.70;;;;;;;;;;4969305;28;20211;-63
2022/11/17 10:17:22;;;;;;;0.77;0.60;;;;;;;;;;4968079;28;20211;-62
2022/11/17 10:19:49;;;;;;;2.00;0.90;;;;;;;;;;4965922;28;20216;-62
2022/11/17 10:22:33;;;;;;;1.17;0.77;;;;;;;;;;4973728;28;20329;-64
2022/11/17 10:25:00;;;;;;;3.47;1.10;;;;;;;;;;4978348;28;20289;-63
2022/11/17 10:27:34;;;;;;;1.33;1.00;;;;;;;;;;4976008;28;20282;-63
2022/11/17 10:30:08;;;;;;;3.43;1.00;;;;;;;;;;4996737;28;20322;-64
2022/11/17 10:32:46;;;;;;;3.13;1.00;;;;;;;;;;4971860;28;20314;-64
2022/11/17 10:35:19;;;;;;;2.83;1.07;;;;;;;;;;4971874;28;20211;-63
2022/11/17 10:37:54;;;;;;;4.10;1.30;;;;;;;;;;4963955;28;20874;-62
2022/11/17 10:40:23;;;;;;;3.40;1.07;;;;;;;;;;4956473;28;20215;-64
2022/11/17 10:43:11;;;;;;;2.07;1.00;;;;;;;;;;4969538;28;20236;-64
2022/11/17 10:45:49;;;;;;;4.13;1.20;;;;;;;;;;4970093;28;20258;-62
2022/11/17 10:48:30;;;;;;;6.67;1.40;;;;;;;;;;4960965;28;21252;-62
2022/11/17 10:51:01;;;;;;;4.60;1.30;;;;;;;;;;4954165;28;20204;-63
2022/11/17 10:53:52;;;;;;;5.17;1.50;;;;;;;;;;4962807;28;20235;-63
2022/11/17 10:56:20;;;;;;;6.87;1.50;;;;;;;;;;4932912;28;20207;-64
2022/11/17 10:59:03;;;;;;;5.03;1.30;;;;;;;;;;4944922;28;20338;-64
2022/11/17 11:01:33;;;;;;;3.80;1.20;;;;;;;;;;4945804;28;20408;-62
2022/11/17 11:04:02;;;;;;;4.90;1.40;;;;;;;;;;4953266;28;20318;-63
2022/11/17 11:06:33;;;;;;;8.57;2.40;;;;;;;;;;4950967;28;20704;-63
2022/11/17 11:09:12;;;;;;;7.50;1.93;;;;;;;;;;4955983;28;20208;-63
2022/11/17 11:11:47;;;;;;;11.63;1.80;;;;;;;;;;4956176;28;20250;-61
2022/11/17 11:14:21;;;;;;;6.53;1.60;;;;;;;;;;4952277;28;20683;-62
2022/11/17 11:16:50;;;;;;;5.70;1.60;;;;;;;;;;4973431;28;20211;-63
2022/11/17 11:19:19;;;;;;;4.33;1.40;;;;;;;;;;4949396;28;20211;-63
2022/11/17 11:21:46;;;;;;;5.23;1.47;;;;;;;;;;4957436;28;20242;-62
2022/11/17 11:24:29;;;;;;;5.53;1.43;;;;;;;;;;4975705;28;20231;-61
2022/11/17 11:27:01;;;;;;;7.67;1.70;;;;;;;;;;4984447;28;20805;-63
2022/11/17 11:29:49;;;;;;;8.57;2.00;;;;;;;;;;4972409;28;20698;-62
2022/11/17 11:32:38;;;;;;;4.10;1.47;;;;;;;;;;4977546;28;20230;-62
2022/11/17 11:35:12;;;;;;;8.17;1.80;;;;;;;;;;4973067;28;20621;-63
2022/11/17 11:37:46;;;;;;;10.90;1.90;;;;;;;;;;4975481;28;20281;-62
2022/11/17 11:40:28;;;;;;;4.27;1.60;;;;;;;;;;4967017;28;20208;-62
2022/11/17 11:43:05;;;;;;;4.50;1.53;;;;;;;;;;4959550;28;20606;-63
2022/11/17 11:45:48;;;;;;;5.73;1.53;;;;;;;;;;4956051;28;20800;-63
2022/11/17 11:48:26;;;;;;;6.00;1.93;;;;;;;;;;4973429;28;20269;-63
2022/11/17 11:50:58;;;;;;;3.53;1.33;;;;;;;;;;4958193;28;20649;-62
2022/11/17 11:53:31;;;;;;;5.67;1.70;;;;;;;;;;4962145;28;20346;-62
2022/11/17 11:56:18;;;;;;;6.13;1.83;;;;;;;;;;4954204;28;20817;-63
2022/11/17 11:59:04;;;;;;;7.37;1.60;;;;;;;;;;4961323;28;20310;-64
2022/11/17 12:01:36;;;;;;;5.90;1.57;;;;;;;;;;4966671;28;20322;-63
2022/11/17 12:04:13;;;;;;;4.37;1.60;;;;;;;;;;4963190;28;20259;-62
2022/11/17 12:07:14;;;;;;;5.30;1.60;;;;;;;;;;4964468;28;20927;-63
2022/11/17 12:09:47;;;;;;;3.92;1.45;;;;;;;;;;4906792;28;20652;-63
2022/11/17 12:12:17;;;;;;;4.53;1.42;;;;;;;;;;4981075;28;20777;-63
2022/11/17 12:15:03;;;;;;;5.68;1.70;;;;;;;;;;4965106;28;20204;-62
2022/11/17 12:17:30;;;;;;;5.15;1.38;;;;;;;;;;4967208;28;20215;-64
2022/11/17 12:19:58;;;;;;;6.78;1.83;;;;;;;;;;4973263;28;20215;-64
2022/11/17 12:22:29;;;;;;;4.72;1.30;;;;;;;;;;4993693;28;20250;-64
2022/11/17 12:24:57;;;;;;;5.05;1.50;;;;;;;;;;4986461;28;20229;-62
2022/11/17 12:27:31;;;;;;;5.03;1.85;;;;;;;;;;4976186;28;20207;-64
2022/11/17 12:29:58;;;;;;;8.65;1.80;;;;;;;;;;4978102;28;20298;-62
2022/11/17 12:32:52;;;;;;;4.63;1.60;;;;;;;;;;4983057;28;20270;-63
2022/11/17 12:35:26;;;;;;;9.00;1.60;;;;;;;;;;4988053;28;20258;-63
2022/11/17 12:38:12;;;;;;;6.10;1.43;;;;;;;;;;4974867;28;20222;-64
2022/11/17 12:40:44;;;;;;;6.53;1.77;;;;;;;;;;4976138;28;20251;-63
2022/11/17 12:43:14;;;;;;;6.70;2.03;;;;;;;;;;4978129;28;20324;-63
2022/11/17 12:45:54;;;;;;;5.90;1.83;;;;;;;;;;4973659;28;20219;-63
2022/11/17 12:48:26;;;;;;;7.30;1.60;;;;;;;;;;4964397;28;20321;-63
2022/11/17 12:51:13;;;;;;;6.70;1.90;;;;;;;;;;4983945;28;20207;-64
2022/11/17 12:53:56;;;;;;;4.77;1.50;;;;;;;;;;4968332;28;20199;-64
2022/11/17 12:56:24;;;;;;;6.07;1.80;;;;;;;;;;4963583;28;20207;-63
2022/11/17 12:58:51;;;;;;;6.07;2.17;;;;;;;;;;4967207;28;20724;-63
2022/11/17 13:01:23;;;;;;;8.03;1.93;;;;;;;;;;4962375;28;20666;-63
2022/11/17 13:04:05;;;;;;;6.23;2.20;;;;;;;;;;4963742;28;20305;-63
2022/11/17 13:06:32;;;;;;;7.47;1.70;;;;;;;;;;4973406;28;20632;-62
2022/11/17 13:09:11;;;;;;;9.03;2.13;;;;;;;;;;4964729;28;20218;-64
2022/11/17 13:11:39;;;;;;;7.63;2.17;;;;;;;;;;4967404;28;20231;-64
2022/11/17 13:14:10;;;;;;;7.50;1.90;;;;;;;;;;4966572;28;20270;-62
2022/11/17 13:16:46;;;;;;;7.07;1.50;;;;;;;;;;4965132;28;20216;-63
2022/11/17 13:19:33;;;;;;;5.23;1.60;;;;;;;;;;4965100;28;20215;-62
2022/11/17 13:22:02;;;;;;;7.77;2.20;;;;;;;;;;4964441;28;20224;-64
2022/11/17 13:24:31;;;;;;;6.20;1.90;;;;;;;;;;4967035;28;20227;-62
2022/11/17 13:26:59;;;;;;;8.40;1.73;;;;;;;;;;4963705;28;20920;-64
2022/11/17 13:29:27;;;;;;;7.80;2.43;;;;;;;;;;4978453;28;20321;-63
2022/11/17 13:32:19;;;;;;;7.87;2.20;;;;;;;;;;4971184;28;20235;-63
2022/11/17 13:34:51;;;;;;;9.63;1.73;;;;;;;;;;4963852;28;20203;-64
2022/11/17 13:37:29;;;;;;;9.77;2.45;;;;;;;;;;4979194;28;20218;-63
2022/11/17 13:39:58;;;;;;;7.07;1.75;;;;;;;;;;4961690;28;20225;-64
2022/11/17 13:42:26;;;;;;;6.00;1.73;;;;;;;;;;4971136;28;20597;-63
2022/11/17 13:44:55;;;;;;;5.97;1.70;;;;;;;;;;4958811;28;21195;-64
2022/11/17 13:47:27;;;;;;;7.35;1.50;;;;;;;;;;4954001;28;20287;-63
2022/11/17 13:49:54;;;;;;;5.80;1.55;;;;;;;;;;4962804;28;20265;-62
2022/11/17 13:52:35;;;;;;;5.05;1.50;;;;;;;;;;4960057;28;20711;-63
2022/11/17 13:55:21;;;;;;;5.83;1.70;;;;;;;;;;4959843;28;20211;-64
2022/11/17 13:58:00;;;;;;;6.85;1.60;;;;;;;;;;4959890;28;20215;-64
2022/11/17 14:00:29;;;;;;;6.55;2.00;;;;;;;;;;4954011;28;20213;-63
2022/11/17 14:02:58;;;;;;;7.72;2.00;;;;;;;;;;4981530;28;20510;-63
2022/11/17 14:05:29;;;;;;;7.90;1.80;;;;;;;;;;4966249;28;20238;-63
2022/11/17 14:07:58;;;;;;;6.03;1.80;;;;;;;;;;4967907;28;20815;-63
2022/11/17 14:10:26;;;;;;;6.72;1.65;;;;;;;;;;4965355;28;20207;-63
2022/11/17 14:13:15;;;;;;;4.30;1.40;;;;;;;;;;4948339;28;21678;-63
2022/11/17 14:15:43;;;;;;;4.82;1.55;;;;;;;;;;4961238;28;20278;-64
2022/11/17 14:18:37;;;;;;;9.48;1.80;;;;;;;;;;4965282;28;20209;-63
2022/11/17 14:21:12;;;;;;;6.72;2.00;;;;;;;;;;4963387;28;20281;-63
2022/11/17 14:23:42;;;;;;;4.82;1.50;;;;;;;;;;4981942;28;20215;-63
2022/11/17 14:26:30;;;;;;;7.53;1.98;;;;;;;;;;4981504;28;20305;-63
2022/11/17 14:29:01;;;;;;;4.45;1.52;;;;;;;;;;4973026;28;20258;-64
2022/11/17 14:31:29;;;;;;;4.47;1.40;;;;;;;;;;4972211;28;20306;-62
2022/11/17 14:33:56;;;;;;;4.20;1.60;;;;;;;;;;4959018;28;20300;-62
2022/11/17 14:36:24;;;;;;;7.28;1.65;;;;;;;;;;4954405;28;20207;-62
2022/11/17 14:38:51;;;;;;;4.88;1.58;;;;;;;;;;4953897;28;20255;-62
2022/11/17 14:41:19;;;;;;;5.22;1.50;;;;;;;;;;4949454;28;20254;-62
2022/11/17 14:43:46;;;;;;;4.78;1.40;;;;;;;;;;4977338;28;20299;-64
2022/11/17 14:46:17;;;;;;;4.57;1.70;;;;;;;;;;4977724;28;20250;-64
2022/11/17 14:48:44;;;;;;;5.10;1.40;;;;;;;;;;4956621;28;20753;-62
2022/11/17 14:51:12;;;;;;;6.10;1.60;;;;;;;;;;4946414;28;21367;-64
2022/11/17 14:53:41;;;;;;;5.27;1.47;;;;;;;;;;4976688;28;20671;-64
2022/11/17 14:56:09;;;;;;;5.73;1.60;;;;;;;;;;4954449;28;20222;-64
2022/11/17 14:58:37;;;;;;;4.57;1.40;;;;;;;;;;4958448;28;20218;-64
2022/11/17 15:01:13;;;;;;;3.33;1.37;;;;;;;;;;4956378;28;21043;-64
2022/11/17 15:03:40;;;;;;;3.97;1.57;;;;;;;;;;4948295;28;20211;-64
2022/11/17 15:06:08;;;;;;;3.43;1.67;;;;;;;;;;4944914;28;21356;-64
2022/11/17 15:08:40;;;;;;;6.83;1.97;;;;;;;;;;4950060;28;20342;-64
2022/11/17 15:11:11;;;;;;;5.63;1.87;;;;;;;;;;4949811;28;20675;-62
2022/11/17 15:13:39;;;;;;;4.83;1.70;;;;;;;;;;4955018;28;20211;-62
2022/11/17 15:16:06;;;;;;;3.37;1.57;;;;;;;;;;4959218;28;20215;-62
2022/11/17 15:18:34;;;;;;;6.13;1.50;;;;;;;;;;4957356;28;20218;-63
2022/11/17 15:21:03;;;;;;;4.43;1.27;;;;;;;;;;4966851;28;20258;-62
2022/11/17 15:23:30;;;;;;;6.23;1.50;;;;;;;;;;4969356;28;21151;-64
2022/11/17 15:25:58;;;;;;;4.90;1.60;;;;;;;;;;4970976;28;20227;-64
2022/11/17 15:28:25;;;;;;;4.83;1.80;;;;;;;;;;4969579;28;20388;-63
2022/11/17 15:30:56;;;;;;;4.43;1.90;;;;;;;;;;4962734;28;20218;-64